sensor_id;sensor_type;location;lat;lon;timestamp;pressure;altitude;pressure_sealevel;temperature;humidity
36828;BME280;22766;48.042;11.192;2022-11-11T00:01:52;96461.06;;;2.37;100.00
36828;BME280;22766;48.042;11.192;2022-11-11T00:04:37;96463.31;;;2.25;100.00
36828;BME280;22766;48.042;11.192;2022-11-11T00:07:22;96459.50;;;2.15;100.00
36828;BME280;22766;48.042;11.192;2022-11-11T00:10:08;96454.00;;;2.05;100.00
36828;BME280;22766;48.042;11.192;2022-11-11T00:13:00;96457.50;;;2.03;100.00
36828;BME280;22766;48.042;11.192;2022-11-11T00:15:45;96459.34;;;1.99;100.00
36828;BME280;22766;48.042;11.192;2022-11-11T00:18:30;96455.78;;;2.03;100.00
36828;BME280;22766;48.042;11.192;2022-11-11T00:21:34;96459.59;;;1.93;100.00
36828;BME280;22766;48.042;11.192;2022-11-11T00:24:26;96462.47;;;1.85;100.00
36828;BME280;22766;48.042;11.192;2022-11-11T00:27:30;96453.22;;;1.83;100.00
36828;BME280;22766;48.042;11.192;2022-11-11T00:30:15;96454.13;;;1.82;100.00
36828;BME280;22766;48.042;11.192;2022-11-11T00:33:00;96453.31;;;1.81;100.00
36828;BME280;22766;48.042;11.192;2022-11-11T00:35:46;96451.78;;;1.77;100.00
36828;BME280;22766;48.042;11.192;2022-11-11T00:38:37;96456.03;;;1.77;100.00
36828;BME280;22766;48.042;11.192;2022-11-11T00:41:32;96450.69;;;1.63;100.00
36828;BME280;22766;48.042;11.192;2022-11-11T00:44:17;96460.22;;;1.58;100.00
36828;BME280;22766;48.042;11.192;2022-11-11T00:47:02;96456.91;;;1.56;100.00
36828;BME280;22766;48.042;11.192;2022-11-11T00:50:10;96456.91;;;1.56;100.00
36828;BME280;22766;48.042;11.192;2022-11-11T00:53:20;96454.38;;;1.56;100.00
36828;BME280;22766;48.042;11.192;2022-11-11T00:56:11;96449.34;;;1.54;100.00
36828;BME280;22766;48.042;11.192;2022-11-11T00:58:56;96436.50;;;1.57;100.00
36828;BME280;22766;48.042;11.192;2022-11-11T01:01:41;96444.91;;;1.59;100.00
36828;BME280;22766;48.042;11.192;2022-11-11T01:04:27;96444.84;;;1.61;100.00
36828;BME280;22766;48.042;11.192;2022-11-11T01:07:12;96443.13;;;1.61;100.00
36828;BME280;22766;48.042;11.192;2022-11-11T01:09:57;96432.28;;;1.56;100.00
36828;BME280;22766;48.042;11.192;2022-11-11T01:12:43;96428.47;;;1.46;100.00
36828;BME280;22766;48.042;11.192;2022-11-11T01:15:32;96437.00;;;1.45;100.00
36828;BME280;22766;48.042;11.192;2022-11-11T01:18:21;96425.34;;;1.60;100.00
36828;BME280;22766;48.042;11.192;2022-11-11T01:21:19;96426.88;;;1.64;100.00
36828;BME280;22766;48.042;11.192;2022-11-11T01:24:05;96432.66;;;1.67;100.00
36828;BME280;22766;48.042;11.192;2022-11-11T01:26:50;96432.06;;;1.62;100.00
36828;BME280;22766;48.042;11.192;2022-11-11T01:29:36;96433.91;;;1.59;100.00
36828;BME280;22766;48.042;11.192;2022-11-11T01:32:21;96430.06;;;1.49;100.00
36828;BME280;22766;48.042;11.192;2022-11-11T01:35:06;96439.47;;;1.47;100.00
36828;BME280;22766;48.042;11.192;2022-11-11T01:37:52;96443.03;;;1.43;100.00
36828;BME280;22766;48.042;11.192;2022-11-11T01:40:42;96432.09;;;1.41;100.00
36828;BME280;22766;48.042;11.192;2022-11-11T01:43:28;96436.94;;;1.47;100.00
36828;BME280;22766;48.042;11.192;2022-11-11T01:46:37;96430.66;;;1.55;100.00
36828;BME280;22766;48.042;11.192;2022-11-11T01:52:22;96429.50;;;1.62;100.00
36828;BME280;22766;48.042;11.192;2022-11-11T01:55:18;96434.97;;;1.73;100.00
36828;BME280;22766;48.042;11.192;2022-11-11T01:58:08;96444.41;;;1.51;100.00
36828;BME280;22766;48.042;11.192;2022-11-11T02:00:57;96448.41;;;1.37;100.00
36828;BME280;22766;48.042;11.192;2022-11-11T02:03:43;96437.69;;;1.29;100.00
36828;BME280;22766;48.042;11.192;2022-11-11T02:06:52;96432.44;;;1.12;100.00
36828;BME280;22766;48.042;11.192;2022-11-11T02:09:41;96443.50;;;1.11;100.00
36828;BME280;22766;48.042;11.192;2022-11-11T02:12:28;96436.53;;;1.16;100.00
36828;BME280;22766;48.042;11.192;2022-11-11T02:15:33;96427.31;;;1.13;100.00
36828;BME280;22766;48.042;11.192;2022-11-11T02:18:18;96433.38;;;1.09;100.00
36828;BME280;22766;48.042;11.192;2022-11-11T02:21:03;96431.84;;;1.05;100.00
36828;BME280;22766;48.042;11.192;2022-11-11T02:24:02;96435.88;;;1.11;100.00
36828;BME280;22766;48.042;11.192;2022-11-11T02:26:48;96439.91;;;0.94;100.00
36828;BME280;22766;48.042;11.192;2022-11-11T02:29:44;96428.13;;;0.92;100.00
36828;BME280;22766;48.042;11.192;2022-11-11T02:32:31;96434.41;;;1.05;100.00
36828;BME280;22766;48.042;11.192;2022-11-11T02:35:37;96432.91;;;1.00;100.00
36828;BME280;22766;48.042;11.192;2022-11-11T02:38:26;96435.75;;;0.92;100.00
36828;BME280;22766;48.042;11.192;2022-11-11T02:41:13;96439.38;;;0.86;100.00
36828;BME280;22766;48.042;11.192;2022-11-11T02:44:17;96442.06;;;0.83;100.00
36828;BME280;22766;48.042;11.192;2022-11-11T02:47:03;96448.06;;;0.81;100.00
36828;BME280;22766;48.042;11.192;2022-11-11T02:49:48;96454.84;;;0.80;100.00
36828;BME280;22766;48.042;11.192;2022-11-11T02:52:33;96456.63;;;0.78;100.00
36828;BME280;22766;48.042;11.192;2022-11-11T02:55:18;96457.41;;;0.80;100.00
36828;BME280;22766;48.042;11.192;2022-11-11T02:58:04;96463.91;;;0.87;100.00
36828;BME280;22766;48.042;11.192;2022-11-11T03:00:49;96468.47;;;1.01;100.00
36828;BME280;22766;48.042;11.192;2022-11-11T03:03:34;96472.78;;;0.99;100.00
36828;BME280;22766;48.042;11.192;2022-11-11T03:06:20;96474.16;;;1.08;100.00
36828;BME280;22766;48.042;11.192;2022-11-11T03:09:05;96477.03;;;1.20;100.00
36828;BME280;22766;48.042;11.192;2022-11-11T03:11:50;96481.88;;;1.26;100.00
36828;BME280;22766;48.042;11.192;2022-11-11T03:14:35;96478.94;;;1.37;100.00
36828;BME280;22766;48.042;11.192;2022-11-11T03:17:23;96482.28;;;1.37;100.00
36828;BME280;22766;48.042;11.192;2022-11-11T03:20:24;96498.97;;;1.44;100.00
36828;BME280;22766;48.042;11.192;2022-11-11T03:23:28;96500.78;;;1.41;100.00
36828;BME280;22766;48.042;11.192;2022-11-11T03:26:13;96512.19;;;1.52;100.00
36828;BME280;22766;48.042;11.192;2022-11-11T03:29:00;96517.75;;;1.62;100.00
36828;BME280;22766;48.042;11.192;2022-11-11T03:31:45;96507.41;;;1.66;100.00
36828;BME280;22766;48.042;11.192;2022-11-11T03:34:30;96511.59;;;1.67;100.00
36828;BME280;22766;48.042;11.192;2022-11-11T03:37:15;96519.81;;;1.74;100.00
36828;BME280;22766;48.042;11.192;2022-11-11T03:40:19;96527.16;;;1.81;100.00
36828;BME280;22766;48.042;11.192;2022-11-11T03:43:04;96526.91;;;1.87;100.00
36828;BME280;22766;48.042;11.192;2022-11-11T03:45:51;96535.16;;;1.92;100.00
36828;BME280;22766;48.042;11.192;2022-11-11T03:48:37;96531.00;;;1.90;100.00
36828;BME280;22766;48.042;11.192;2022-11-11T03:51:23;96536.81;;;1.73;100.00
36828;BME280;22766;48.042;11.192;2022-11-11T03:54:08;96529.31;;;1.70;100.00
36828;BME280;22766;48.042;11.192;2022-11-11T03:56:54;96528.28;;;1.74;100.00
36828;BME280;22766;48.042;11.192;2022-11-11T03:59:59;96522.44;;;1.72;100.00
36828;BME280;22766;48.042;11.192;2022-11-11T04:02:44;96520.19;;;1.65;100.00
36828;BME280;22766;48.042;11.192;2022-11-11T04:05:49;96518.19;;;1.51;100.00
36828;BME280;22766;48.042;11.192;2022-11-11T04:08:46;96514.88;;;1.49;100.00
36828;BME280;22766;48.042;11.192;2022-11-11T04:11:50;96517.28;;;1.52;100.00
36828;BME280;22766;48.042;11.192;2022-11-11T04:14:35;96514.19;;;1.46;100.00
36828;BME280;22766;48.042;11.192;2022-11-11T04:17:39;96518.66;;;1.39;100.00
36828;BME280;22766;48.042;11.192;2022-11-11T04:20:24;96507.63;;;1.40;100.00
36828;BME280;22766;48.042;11.192;2022-11-11T04:23:29;96506.44;;;1.27;100.00
36828;BME280;22766;48.042;11.192;2022-11-11T04:26:14;96494.06;;;1.18;100.00
36828;BME280;22766;48.042;11.192;2022-11-11T04:29:00;96496.09;;;1.10;100.00
36828;BME280;22766;48.042;11.192;2022-11-11T04:32:13;96496.19;;;1.07;100.00
36828;BME280;22766;48.042;11.192;2022-11-11T04:35:17;96482.00;;;1.02;100.00
36828;BME280;22766;48.042;11.192;2022-11-11T04:38:04;96488.88;;;1.00;100.00
36828;BME280;22766;48.042;11.192;2022-11-11T04:41:08;96488.09;;;0.98;100.00
36828;BME280;22766;48.042;11.192;2022-11-11T04:43:55;96491.53;;;0.97;100.00
36828;BME280;22766;48.042;11.192;2022-11-11T04:46:59;96482.72;;;0.83;100.00
36828;BME280;22766;48.042;11.192;2022-11-11T04:49:44;96489.38;;;0.86;100.00
36828;BME280;22766;48.042;11.192;2022-11-11T04:52:29;96498.19;;;0.77;100.00
36828;BME280;22766;48.042;11.192;2022-11-11T04:55:15;96499.25;;;0.72;100.00
36828;BME280;22766;48.042;11.192;2022-11-11T04:58:22;96499.84;;;0.78;100.00
36828;BME280;22766;48.042;11.192;2022-11-11T05:01:08;96502.03;;;0.87;100.00
36828;BME280;22766;48.042;11.192;2022-11-11T05:03:53;96507.75;;;0.71;100.00
36828;BME280;22766;48.042;11.192;2022-11-11T05:06:39;96518.63;;;0.74;100.00
36828;BME280;22766;48.042;11.192;2022-11-11T05:09:44;96521.22;;;0.73;100.00
36828;BME280;22766;48.042;11.192;2022-11-11T05:12:29;96520.97;;;0.57;100.00
36828;BME280;22766;48.042;11.192;2022-11-11T05:15:14;96517.41;;;0.61;100.00
36828;BME280;22766;48.042;11.192;2022-11-11T05:18:18;96515.59;;;0.65;100.00
36828;BME280;22766;48.042;11.192;2022-11-11T05:21:27;96509.31;;;0.75;100.00
36828;BME280;22766;48.042;11.192;2022-11-11T05:24:13;96511.34;;;0.88;100.00
36828;BME280;22766;48.042;11.192;2022-11-11T05:27:17;96516.78;;;1.01;100.00
36828;BME280;22766;48.042;11.192;2022-11-11T05:30:04;96519.22;;;1.04;100.00
36828;BME280;22766;48.042;11.192;2022-11-11T05:32:50;96517.84;;;1.17;100.00
36828;BME280;22766;48.042;11.192;2022-11-11T05:35:35;96519.09;;;1.29;100.00
36828;BME280;22766;48.042;11.192;2022-11-11T05:38:20;96515.84;;;1.25;100.00
36828;BME280;22766;48.042;11.192;2022-11-11T05:41:07;96524.34;;;1.24;100.00
36828;BME280;22766;48.042;11.192;2022-11-11T05:43:52;96521.50;;;1.32;100.00
36828;BME280;22766;48.042;11.192;2022-11-11T05:46:37;96518.97;;;1.32;100.00
36828;BME280;22766;48.042;11.192;2022-11-11T05:49:23;96521.34;;;1.36;100.00
36828;BME280;22766;48.042;11.192;2022-11-11T05:52:14;96519.63;;;1.37;100.00
36828;BME280;22766;48.042;11.192;2022-11-11T05:55:02;96535.47;;;1.43;100.00
36828;BME280;22766;48.042;11.192;2022-11-11T05:57:47;96540.25;;;1.51;100.00
36828;BME280;22766;48.042;11.192;2022-11-11T06:00:33;96544.94;;;1.61;100.00
36828;BME280;22766;48.042;11.192;2022-11-11T06:03:18;96550.06;;;1.60;100.00
36828;BME280;22766;48.042;11.192;2022-11-11T06:06:03;96556.63;;;1.65;100.00
36828;BME280;22766;48.042;11.192;2022-11-11T06:08:48;96562.22;;;1.53;100.00
36828;BME280;22766;48.042;11.192;2022-11-11T06:11:34;96557.53;;;1.43;100.00
36828;BME280;22766;48.042;11.192;2022-11-11T06:14:19;96570.09;;;1.47;100.00
36828;BME280;22766;48.042;11.192;2022-11-11T06:17:04;96568.59;;;1.63;100.00
36828;BME280;22766;48.042;11.192;2022-11-11T06:19:50;96567.84;;;1.61;100.00
36828;BME280;22766;48.042;11.192;2022-11-11T06:22:35;96570.03;;;1.70;100.00
36828;BME280;22766;48.042;11.192;2022-11-11T06:25:38;96578.94;;;1.80;100.00
36828;BME280;22766;48.042;11.192;2022-11-11T06:31:29;96582.63;;;1.73;100.00
36828;BME280;22766;48.042;11.192;2022-11-11T06:34:16;96586.94;;;1.71;100.00
36828;BME280;22766;48.042;11.192;2022-11-11T06:37:01;96588.50;;;1.75;100.00
36828;BME280;22766;48.042;11.192;2022-11-11T06:39:46;96598.81;;;1.72;100.00
36828;BME280;22766;48.042;11.192;2022-11-11T06:42:35;96602.63;;;1.82;100.00
36828;BME280;22766;48.042;11.192;2022-11-11T06:45:21;96601.63;;;1.86;100.00
36828;BME280;22766;48.042;11.192;2022-11-11T06:48:07;96602.75;;;2.01;100.00
36828;BME280;22766;48.042;11.192;2022-11-11T06:50:53;96597.13;;;1.93;100.00
36828;BME280;22766;48.042;11.192;2022-11-11T06:53:39;96607.47;;;1.88;100.00
36828;BME280;22766;48.042;11.192;2022-11-11T06:56:24;96599.84;;;1.88;100.00
36828;BME280;22766;48.042;11.192;2022-11-11T06:59:10;96608.94;;;1.94;100.00
36828;BME280;22766;48.042;11.192;2022-11-11T07:01:55;96614.75;;;1.98;100.00
36828;BME280;22766;48.042;11.192;2022-11-11T07:04:40;96611.19;;;2.02;100.00
36828;BME280;22766;48.042;11.192;2022-11-11T07:07:26;96604.56;;;1.98;100.00
36828;BME280;22766;48.042;11.192;2022-11-11T07:10:12;96613.31;;;2.12;100.00
36828;BME280;22766;48.042;11.192;2022-11-11T07:12:58;96622.53;;;2.15;100.00
36828;BME280;22766;48.042;11.192;2022-11-11T07:15:43;96625.09;;;2.15;100.00
36828;BME280;22766;48.042;11.192;2022-11-11T07:18:28;96629.38;;;2.14;100.00
36828;BME280;22766;48.042;11.192;2022-11-11T07:21:14;96640.84;;;2.24;100.00
36828;BME280;22766;48.042;11.192;2022-11-11T07:23:59;96642.03;;;2.37;100.00
36828;BME280;22766;48.042;11.192;2022-11-11T07:26:44;96651.56;;;2.52;100.00
36828;BME280;22766;48.042;11.192;2022-11-11T07:29:30;96658.69;;;2.44;100.00
36828;BME280;22766;48.042;11.192;2022-11-11T07:32:15;96658.63;;;2.46;100.00
36828;BME280;22766;48.042;11.192;2022-11-11T07:35:01;96660.53;;;2.61;100.00
36828;BME280;22766;48.042;11.192;2022-11-11T07:37:46;96661.94;;;2.88;100.00
36828;BME280;22766;48.042;11.192;2022-11-11T07:40:31;96671.06;;;2.94;100.00
36828;BME280;22766;48.042;11.192;2022-11-11T07:43:16;96668.25;;;3.00;100.00
36828;BME280;22766;48.042;11.192;2022-11-11T07:46:02;96673.84;;;3.08;100.00
36828;BME280;22766;48.042;11.192;2022-11-11T07:48:47;96678.13;;;3.07;100.00
36828;BME280;22766;48.042;11.192;2022-11-11T07:51:32;96685.69;;;3.09;100.00
36828;BME280;22766;48.042;11.192;2022-11-11T07:54:18;96682.56;;;3.22;100.00
36828;BME280;22766;48.042;11.192;2022-11-11T07:57:03;96677.81;;;3.33;100.00
36828;BME280;22766;48.042;11.192;2022-11-11T07:59:49;96685.13;;;3.41;100.00
36828;BME280;22766;48.042;11.192;2022-11-11T08:02:34;96676.56;;;3.60;100.00
36828;BME280;22766;48.042;11.192;2022-11-11T08:05:19;96673.31;;;3.75;100.00
36828;BME280;22766;48.042;11.192;2022-11-11T08:08:06;96670.50;;;4.17;100.00
36828;BME280;22766;48.042;11.192;2022-11-11T08:10:55;96676.75;;;4.46;100.00
36828;BME280;22766;48.042;11.192;2022-11-11T08:13:40;96675.34;;;4.74;100.00
36828;BME280;22766;48.042;11.192;2022-11-11T08:16:26;96675.06;;;4.96;100.00
36828;BME280;22766;48.042;11.192;2022-11-11T08:19:11;96679.44;;;4.94;100.00
36828;BME280;22766;48.042;11.192;2022-11-11T08:21:56;96672.81;;;5.23;100.00
36828;BME280;22766;48.042;11.192;2022-11-11T08:24:41;96679.22;;;5.31;100.00
36828;BME280;22766;48.042;11.192;2022-11-11T08:27:46;96678.34;;;5.63;100.00
36828;BME280;22766;48.042;11.192;2022-11-11T08:30:32;96672.31;;;5.64;100.00
36828;BME280;22766;48.042;11.192;2022-11-11T08:33:17;96670.25;;;5.71;100.00
36828;BME280;22766;48.042;11.192;2022-11-11T08:36:22;96671.69;;;6.08;100.00
36828;BME280;22766;48.042;11.192;2022-11-11T08:39:09;96670.72;;;6.40;100.00
36828;BME280;22766;48.042;11.192;2022-11-11T08:41:56;96658.97;;;6.66;100.00
36828;BME280;22766;48.042;11.192;2022-11-11T08:44:41;96656.63;;;6.77;100.00
36828;BME280;22766;48.042;11.192;2022-11-11T08:47:26;96654.63;;;6.96;100.00
36828;BME280;22766;48.042;11.192;2022-11-11T08:50:12;96651.59;;;6.89;100.00
36828;BME280;22766;48.042;11.192;2022-11-11T08:52:57;96657.44;;;6.77;100.00
36828;BME280;22766;48.042;11.192;2022-11-11T08:55:42;96655.25;;;6.85;100.00
36828;BME280;22766;48.042;11.192;2022-11-11T08:58:28;96653.75;;;7.25;100.00
36828;BME280;22766;48.042;11.192;2022-11-11T09:01:13;96655.50;;;7.10;100.00
36828;BME280;22766;48.042;11.192;2022-11-11T09:03:58;96658.97;;;7.23;100.00
36828;BME280;22766;48.042;11.192;2022-11-11T09:07:05;96652.75;;;7.27;100.00
36828;BME280;22766;48.042;11.192;2022-11-11T09:09:50;96642.97;;;7.61;100.00
36828;BME280;22766;48.042;11.192;2022-11-11T09:12:35;96648.09;;;7.75;100.00
36828;BME280;22766;48.042;11.192;2022-11-11T09:15:20;96643.75;;;7.89;100.00
36828;BME280;22766;48.042;11.192;2022-11-11T09:18:05;96644.94;;;7.98;100.00
36828;BME280;22766;48.042;11.192;2022-11-11T09:20:51;96646.31;;;8.16;100.00
36828;BME280;22766;48.042;11.192;2022-11-11T09:23:36;96632.94;;;8.37;100.00
36828;BME280;22766;48.042;11.192;2022-11-11T09:26:21;96633.03;;;8.36;100.00
36828;BME280;22766;48.042;11.192;2022-11-11T09:29:07;96636.63;;;8.33;100.00
36828;BME280;22766;48.042;11.192;2022-11-11T09:31:52;96632.13;;;8.49;100.00
36828;BME280;22766;48.042;11.192;2022-11-11T09:34:37;96634.03;;;8.60;100.00
36828;BME280;22766;48.042;11.192;2022-11-11T09:37:23;96633.53;;;8.80;100.00
36828;BME280;22766;48.042;11.192;2022-11-11T09:40:16;96633.13;;;9.11;100.00
36828;BME280;22766;48.042;11.192;2022-11-11T09:49:34;96639.16;;;9.61;100.00
36828;BME280;22766;48.042;11.192;2022-11-11T09:58:28;96636.56;;;10.09;100.00
36828;BME280;22766;48.042;11.192;2022-11-11T10:01:25;96637.16;;;10.37;100.00
36828;BME280;22766;48.042;11.192;2022-11-11T10:04:15;96629.19;;;10.74;100.00
36828;BME280;22766;48.042;11.192;2022-11-11T10:07:26;96630.25;;;10.13;100.00
36828;BME280;22766;48.042;11.192;2022-11-11T10:10:15;96632.88;;;9.88;100.00
36828;BME280;22766;48.042;11.192;2022-11-11T10:13:01;96637.38;;;9.74;100.00
36828;BME280;22766;48.042;11.192;2022-11-11T10:19:12;96637.78;;;10.04;100.00
36828;BME280;22766;48.042;11.192;2022-11-11T10:22:01;96634.97;;;10.07;100.00
36828;BME280;22766;48.042;11.192;2022-11-11T10:27:58;96632.63;;;10.51;100.00
36828;BME280;22766;48.042;11.192;2022-11-11T10:30:47;96635.34;;;10.84;100.00
36828;BME280;22766;48.042;11.192;2022-11-11T10:33:50;96630.00;;;11.43;100.00
36828;BME280;22766;48.042;11.192;2022-11-11T10:36:45;96638.00;;;11.73;100.00
36828;BME280;22766;48.042;11.192;2022-11-11T10:42:32;96625.84;;;13.11;100.00
36828;BME280;22766;48.042;11.192;2022-11-11T10:51:32;96617.78;;;13.65;95.50
36828;BME280;22766;48.042;11.192;2022-11-11T10:54:25;96625.25;;;13.58;98.17
36828;BME280;22766;48.042;11.192;2022-11-11T10:57:23;96622.38;;;13.52;97.29
36828;BME280;22766;48.042;11.192;2022-11-11T11:00:13;96622.59;;;13.69;100.00
36828;BME280;22766;48.042;11.192;2022-11-11T11:08:58;96606.31;;;13.67;92.52
36828;BME280;22766;48.042;11.192;2022-11-11T11:11:55;96613.19;;;13.87;91.44
36828;BME280;22766;48.042;11.192;2022-11-11T11:14:46;96607.13;;;13.68;95.65
36828;BME280;22766;48.042;11.192;2022-11-11T11:17:41;96605.31;;;14.08;94.08
36828;BME280;22766;48.042;11.192;2022-11-11T11:20:32;96613.84;;;14.58;88.38
36828;BME280;22766;48.042;11.192;2022-11-11T11:23:34;96609.34;;;14.31;88.42
36828;BME280;22766;48.042;11.192;2022-11-11T11:26:20;96607.22;;;15.02;85.12
36828;BME280;22766;48.042;11.192;2022-11-11T11:29:05;96616.69;;;15.85;80.17
36828;BME280;22766;48.042;11.192;2022-11-11T11:31:50;96624.59;;;16.38;71.55
36828;BME280;22766;48.042;11.192;2022-11-11T11:34:51;96618.13;;;16.42;68.44
36828;BME280;22766;48.042;11.192;2022-11-11T11:37:50;96623.06;;;16.01;71.21
36828;BME280;22766;48.042;11.192;2022-11-11T11:43:37;96613.81;;;17.63;63.94
36828;BME280;22766;48.042;11.192;2022-11-11T11:46:37;96615.94;;;18.01;59.48
36828;BME280;22766;48.042;11.192;2022-11-11T11:56:19;96615.41;;;17.90;55.85
36828;BME280;22766;48.042;11.192;2022-11-11T11:59:16;96607.56;;;17.90;57.17
36828;BME280;22766;48.042;11.192;2022-11-11T12:05:26;96608.47;;;17.72;56.88
36828;BME280;22766;48.042;11.192;2022-11-11T12:21:16;96601.97;;;13.87;82.96
36828;BME280;22766;48.042;11.192;2022-11-11T12:45:34;96561.41;;;16.79;61.78
36828;BME280;22766;48.042;11.192;2022-11-11T12:48:30;96568.81;;;16.66;59.29
36828;BME280;22766;48.042;11.192;2022-11-11T12:51:35;96566.81;;;17.04;58.91
36828;BME280;22766;48.042;11.192;2022-11-11T13:00:43;96572.34;;;17.34;56.66
36828;BME280;22766;48.042;11.192;2022-11-11T13:04:13;96572.41;;;17.76;53.50
36828;BME280;22766;48.042;11.192;2022-11-11T13:16:21;96575.59;;;20.57;45.46
36828;BME280;22766;48.042;11.192;2022-11-11T13:19:22;96576.34;;;19.02;49.47
36828;BME280;22766;48.042;11.192;2022-11-11T13:22:24;96574.25;;;18.90;50.72
36828;BME280;22766;48.042;11.192;2022-11-11T13:25:15;96568.94;;;18.33;51.96
36828;BME280;22766;48.042;11.192;2022-11-11T13:28:13;96568.03;;;18.58;52.89
36828;BME280;22766;48.042;11.192;2022-11-11T13:31:14;96574.72;;;17.79;57.68
36828;BME280;22766;48.042;11.192;2022-11-11T13:34:08;96581.06;;;18.34;55.76
36828;BME280;22766;48.042;11.192;2022-11-11T13:36:54;96585.53;;;18.66;52.40
36828;BME280;22766;48.042;11.192;2022-11-11T13:39:46;96580.13;;;18.67;52.76
36828;BME280;22766;48.042;11.192;2022-11-11T13:42:38;96585.19;;;17.87;54.54
36828;BME280;22766;48.042;11.192;2022-11-11T13:45:29;96583.13;;;18.07;55.69
36828;BME280;22766;48.042;11.192;2022-11-11T13:51:29;96572.88;;;17.71;57.91
36828;BME280;22766;48.042;11.192;2022-11-11T13:54:33;96581.03;;;16.66;59.61
36828;BME280;22766;48.042;11.192;2022-11-11T13:57:21;96574.63;;;16.43;61.33
36828;BME280;22766;48.042;11.192;2022-11-11T14:08:57;96574.34;;;13.27;89.57
36828;BME280;22766;48.042;11.192;2022-11-11T14:11:43;96563.53;;;13.01;93.17
36828;BME280;22766;48.042;11.192;2022-11-11T14:17:16;96577.22;;;12.62;99.41
36828;BME280;22766;48.042;11.192;2022-11-11T14:20:54;96576.13;;;12.44;100.00
36828;BME280;22766;48.042;11.192;2022-11-11T14:23:40;96586.72;;;12.20;100.00
36828;BME280;22766;48.042;11.192;2022-11-11T14:26:27;96592.22;;;11.84;100.00
36828;BME280;22766;48.042;11.192;2022-11-11T14:29:18;96592.97;;;11.42;100.00
36828;BME280;22766;48.042;11.192;2022-11-11T14:44:42;96611.16;;;11.07;100.00
36828;BME280;22766;48.042;11.192;2022-11-11T14:53:19;96598.31;;;10.38;100.00
36828;BME280;22766;48.042;11.192;2022-11-11T14:56:14;96601.84;;;10.37;100.00
36828;BME280;22766;48.042;11.192;2022-11-11T14:59:06;96602.63;;;10.26;100.00
36828;BME280;22766;48.042;11.192;2022-11-11T15:01:53;96611.47;;;10.11;100.00
36828;BME280;22766;48.042;11.192;2022-11-11T15:04:39;96606.50;;;10.08;100.00
36828;BME280;22766;48.042;11.192;2022-11-11T15:07:32;96608.75;;;9.89;100.00
36828;BME280;22766;48.042;11.192;2022-11-11T15:13:23;96609.84;;;9.62;100.00
36828;BME280;22766;48.042;11.192;2022-11-11T15:34:35;96600.06;;;8.28;100.00
36828;BME280;22766;48.042;11.192;2022-11-11T15:37:25;96603.31;;;8.18;100.00
36828;BME280;22766;48.042;11.192;2022-11-11T15:40:22;96606.75;;;8.04;100.00
36828;BME280;22766;48.042;11.192;2022-11-11T15:43:20;96610.94;;;7.93;100.00
36828;BME280;22766;48.042;11.192;2022-11-11T15:46:21;96614.00;;;7.85;100.00
36828;BME280;22766;48.042;11.192;2022-11-11T15:52:26;96616.38;;;7.62;100.00
36828;BME280;22766;48.042;11.192;2022-11-11T15:55:30;96625.28;;;7.42;100.00
36828;BME280;22766;48.042;11.192;2022-11-11T15:58:23;96624.66;;;7.24;100.00
36828;BME280;22766;48.042;11.192;2022-11-11T16:01:10;96627.03;;;7.13;100.00
36828;BME280;22766;48.042;11.192;2022-11-11T16:03:56;96630.81;;;7.08;100.00
36828;BME280;22766;48.042;11.192;2022-11-11T16:06:42;96631.06;;;6.89;100.00
36828;BME280;22766;48.042;11.192;2022-11-11T16:09:29;96639.94;;;6.70;100.00
36828;BME280;22766;48.042;11.192;2022-11-11T16:12:22;96648.06;;;6.62;100.00
36828;BME280;22766;48.042;11.192;2022-11-11T16:15:09;96645.75;;;6.57;100.00
36828;BME280;22766;48.042;11.192;2022-11-11T16:17:58;96644.94;;;6.57;100.00
36828;BME280;22766;48.042;11.192;2022-11-11T16:23:33;96651.28;;;6.36;100.00
36828;BME280;22766;48.042;11.192;2022-11-11T16:26:19;96647.34;;;6.30;100.00
36828;BME280;22766;48.042;11.192;2022-11-11T16:29:13;96655.47;;;6.23;100.00
36828;BME280;22766;48.042;11.192;2022-11-11T16:31:59;96655.63;;;6.20;100.00
36828;BME280;22766;48.042;11.192;2022-11-11T16:34:45;96647.38;;;6.15;100.00
36828;BME280;22766;48.042;11.192;2022-11-11T16:37:49;96647.47;;;5.98;100.00
36828;BME280;22766;48.042;11.192;2022-11-11T16:40:41;96644.97;;;5.81;100.00
36828;BME280;22766;48.042;11.192;2022-11-11T16:43:30;96645.28;;;5.75;100.00
36828;BME280;22766;48.042;11.192;2022-11-11T16:46:37;96644.72;;;5.69;100.00
36828;BME280;22766;48.042;11.192;2022-11-11T16:52:23;96648.78;;;5.58;100.00
36828;BME280;22766;48.042;11.192;2022-11-11T16:55:43;96645.38;;;5.57;100.00
36828;BME280;22766;48.042;11.192;2022-11-11T16:58:28;96644.94;;;5.49;100.00
36828;BME280;22766;48.042;11.192;2022-11-11T17:01:16;96643.44;;;5.45;100.00
36828;BME280;22766;48.042;11.192;2022-11-11T17:04:02;96646.38;;;5.39;100.00
36828;BME280;22766;48.042;11.192;2022-11-11T17:09:43;96639.75;;;5.35;100.00
36828;BME280;22766;48.042;11.192;2022-11-11T17:12:29;96650.78;;;5.36;100.00
36828;BME280;22766;48.042;11.192;2022-11-11T17:15:19;96650.13;;;5.32;100.00
36828;BME280;22766;48.042;11.192;2022-11-11T17:18:04;96649.06;;;5.36;100.00
36828;BME280;22766;48.042;11.192;2022-11-11T17:20:53;96643.47;;;5.30;100.00
36828;BME280;22766;48.042;11.192;2022-11-11T17:23:38;96645.69;;;5.20;100.00
36828;BME280;22766;48.042;11.192;2022-11-11T17:26:24;96637.88;;;5.06;100.00
36828;BME280;22766;48.042;11.192;2022-11-11T17:29:10;96644.28;;;4.98;100.00
36828;BME280;22766;48.042;11.192;2022-11-11T17:31:55;96644.13;;;5.01;100.00
36828;BME280;22766;48.042;11.192;2022-11-11T17:34:40;96633.72;;;5.04;100.00
36828;BME280;22766;48.042;11.192;2022-11-11T17:37:26;96638.19;;;5.00;100.00
36828;BME280;22766;48.042;11.192;2022-11-11T17:40:11;96641.78;;;4.96;100.00